sensor_id;sensor_type;location;lat;lon;timestamp;P1;P2;P0
80692;PMS5003;70055;39.436;-77.514;2024-03-23T00:54:49;9;9;
80692;PMS5003;70055;39.436;-77.514;2024-03-23T00:57:17;11;9;
80692;PMS5003;70055;39.436;-77.514;2024-03-23T00:59:46;8;8;
80692;PMS5003;70055;39.436;-77.514;2024-03-23T01:02:13;8;8;
80692;PMS5003;70055;39.436;-77.514;2024-03-23T01:04:41;8;8;
80692;PMS5003;70055;39.436;-77.514;2024-03-23T01:07:09;7;7;
80692;PMS5003;70055;39.436;-77.514;2024-03-23T01:09:36;8;8;
80692;PMS5003;70055;39.436;-77.514;2024-03-23T01:12:05;8;7;
80692;PMS5003;70055;39.436;-77.514;2024-03-23T01:14:33;6;6;
80692;PMS5003;70055;39.436;-77.514;2024-03-23T01:17:01;8;8;
80692;PMS5003;70055;39.436;-77.514;2024-03-23T01:19:30;8;8;
80692;PMS5003;70055;39.436;-77.514;2024-03-23T01:21:59;9;9;
80692;PMS5003;70055;39.436;-77.514;2024-03-23T01:24:27;9;9;
80692;PMS5003;70055;39.436;-77.514;2024-03-23T01:26:56;8;8;
80692;PMS5003;70055;39.436;-77.514;2024-03-23T01:29:24;9;8;
80692;PMS5003;70055;39.436;-77.514;2024-03-23T01:31:52;6;6;
80692;PMS5003;70055;39.436;-77.514;2024-03-23T01:34:21;8;8;
80692;PMS5003;70055;39.436;-77.514;2024-03-23T01:36:49;10;9;
80692;PMS5003;70055;39.436;-77.514;2024-03-23T01:39:17;6;6;
80692;PMS5003;70055;39.436;-77.514;2024-03-23T01:41:47;7;7;
80692;PMS5003;70055;39.436;-77.514;2024-03-23T01:44:16;9;8;
80692;PMS5003;70055;39.436;-77.514;2024-03-23T01:46:44;8;8;
80692;PMS5003;70055;39.436;-77.514;2024-03-23T01:49:13;8;7;
80692;PMS5003;70055;39.436;-77.514;2024-03-23T01:51:42;7;7;
80692;PMS5003;70055;39.436;-77.514;2024-03-23T01:54:11;10;9;
80692;PMS5003;70055;39.436;-77.514;2024-03-23T01:56:39;7;7;
80692;PMS5003;70055;39.436;-77.514;2024-03-23T01:59:08;11;11;
80692;PMS5003;70055;39.436;-77.514;2024-03-23T02:01:36;8;8;
80692;PMS5003;70055;39.436;-77.514;2024-03-23T02:04:04;10;10;
80692;PMS5003;70055;39.436;-77.514;2024-03-23T02:06:33;9;9;
80692;PMS5003;70055;39.436;-77.514;2024-03-23T02:09:01;10;9;
80692;PMS5003;70055;39.436;-77.514;2024-03-23T02:11:30;8;8;
80692;PMS5003;70055;39.436;-77.514;2024-03-23T02:13:59;10;9;
80692;PMS5003;70055;39.436;-77.514;2024-03-23T02:16:27;8;8;
80692;PMS5003;70055;39.436;-77.514;2024-03-23T02:18:56;7;7;
80692;PMS5003;70055;39.436;-77.514;2024-03-23T02:21:24;9;9;
80692;PMS5003;70055;39.436;-77.514;2024-03-23T02:23:52;10;10;
80692;PMS5003;70055;39.436;-77.514;2024-03-23T02:26:20;8;8;
80692;PMS5003;70055;39.436;-77.514;2024-03-23T02:28:48;7;7;
80692;PMS5003;70055;39.436;-77.514;2024-03-23T02:31:17;9;8;
80692;PMS5003;70055;39.436;-77.514;2024-03-23T02:33:45;9;8;
80692;PMS5003;70055;39.436;-77.514;2024-03-23T02:36:13;9;9;
80692;PMS5003;70055;39.436;-77.514;2024-03-23T02:38:43;8;8;
80692;PMS5003;70055;39.436;-77.514;2024-03-23T02:41:11;8;8;
80692;PMS5003;70055;39.436;-77.514;2024-03-23T02:43:39;13;13;
80692;PMS5003;70055;39.436;-77.514;2024-03-23T02:46:07;8;8;
80692;PMS5003;70055;39.436;-77.514;2024-03-23T02:48:35;8;8;
80692;PMS5003;70055;39.436;-77.514;2024-03-23T02:51:03;8;8;
80692;PMS5003;70055;39.436;-77.514;2024-03-23T02:53:31;9;9;
80692;PMS5003;70055;39.436;-77.514;2024-03-23T02:55:59;10;8;
80692;PMS5003;70055;39.436;-77.514;2024-03-23T02:58:27;11;11;
80692;PMS5003;70055;39.436;-77.514;2024-03-23T03:00:56;10;8;
80692;PMS5003;70055;39.436;-77.514;2024-03-23T03:03:25;8;8;
80692;PMS5003;70055;39.436;-77.514;2024-03-23T03:05:55;13;12;
80692;PMS5003;70055;39.436;-77.514;2024-03-23T03:08:23;12;11;
80692;PMS5003;70055;39.436;-77.514;2024-03-23T03:10:51;10;10;
80692;PMS5003;70055;39.436;-77.514;2024-03-23T03:13:19;11;11;
80692;PMS5003;70055;39.436;-77.514;2024-03-23T03:15:47;11;10;
80692;PMS5003;70055;39.436;-77.514;2024-03-23T03:18:15;12;12;
80692;PMS5003;70055;39.436;-77.514;2024-03-23T03:20:44;11;11;
80692;PMS5003;70055;39.436;-77.514;2024-03-23T03:23:12;12;12;
80692;PMS5003;70055;39.436;-77.514;2024-03-23T03:25:40;12;12;
80692;PMS5003;70055;39.436;-77.514;2024-03-23T03:28:09;16;15;
80692;PMS5003;70055;39.436;-77.514;2024-03-23T03:30:37;10;10;
80692;PMS5003;70055;39.436;-77.514;2024-03-23T03:33:05;12;12;
80692;PMS5003;70055;39.436;-77.514;2024-03-23T03:35:33;11;11;
80692;PMS5003;70055;39.436;-77.514;2024-03-23T03:38:02;12;12;
80692;PMS5003;70055;39.436;-77.514;2024-03-23T03:40:30;11;10;
80692;PMS5003;70055;39.436;-77.514;2024-03-23T03:42:58;14;14;
80692;PMS5003;70055;39.436;-77.514;2024-03-23T03:45:25;14;13;
80692;PMS5003;70055;39.436;-77.514;2024-03-23T03:47:55;16;15;
80692;PMS5003;70055;39.436;-77.514;2024-03-23T03:50:22;15;15;
80692;PMS5003;70055;39.436;-77.514;2024-03-23T03:52:50;15;15;
80692;PMS5003;70055;39.436;-77.514;2024-03-23T03:55:18;17;15;
80692;PMS5003;70055;39.436;-77.514;2024-03-23T03:57:47;15;15;
80692;PMS5003;70055;39.436;-77.514;2024-03-23T04:00:16;16;15;
80692;PMS5003;70055;39.436;-77.514;2024-03-23T04:02:46;15;15;
80692;PMS5003;70055;39.436;-77.514;2024-03-23T04:05:14;16;16;
80692;PMS5003;70055;39.436;-77.514;2024-03-23T04:07:43;15;12;
80692;PMS5003;70055;39.436;-77.514;2024-03-23T04:10:11;13;13;
80692;PMS5003;70055;39.436;-77.514;2024-03-23T04:12:39;15;15;
80692;PMS5003;70055;39.436;-77.514;2024-03-23T04:15:08;11;11;
80692;PMS5003;70055;39.436;-77.514;2024-03-23T04:17:36;13;13;
80692;PMS5003;70055;39.436;-77.514;2024-03-23T04:20:04;12;12;
80692;PMS5003;70055;39.436;-77.514;2024-03-23T04:22:33;11;11;
80692;PMS5003;70055;39.436;-77.514;2024-03-23T04:25:01;15;15;
80692;PMS5003;70055;39.436;-77.514;2024-03-23T04:27:29;16;16;
80692;PMS5003;70055;39.436;-77.514;2024-03-23T04:29:58;13;13;
80692;PMS5003;70055;39.436;-77.514;2024-03-23T04:32:26;13;13;
80692;PMS5003;70055;39.436;-77.514;2024-03-23T04:34:55;16;13;
80692;PMS5003;70055;39.436;-77.514;2024-03-23T04:37:23;15;13;
80692;PMS5003;70055;39.436;-77.514;2024-03-23T04:39:51;12;12;
80692;PMS5003;70055;39.436;-77.514;2024-03-23T04:42:19;14;13;
80692;PMS5003;70055;39.436;-77.514;2024-03-23T04:44:47;14;13;
80692;PMS5003;70055;39.436;-77.514;2024-03-23T04:47:16;14;13;
80692;PMS5003;70055;39.436;-77.514;2024-03-23T04:49:43;14;14;
80692;PMS5003;70055;39.436;-77.514;2024-03-23T04:52:12;16;16;
80692;PMS5003;70055;39.436;-77.514;2024-03-23T04:54:40;14;13;
80692;PMS5003;70055;39.436;-77.514;2024-03-23T04:57:08;13;12;
80692;PMS5003;70055;39.436;-77.514;2024-03-23T04:59:37;15;15;
80692;PMS5003;70055;39.436;-77.514;2024-03-23T05:02:05;16;15;
80692;PMS5003;70055;39.436;-77.514;2024-03-23T05:04:33;18;16;
80692;PMS5003;70055;39.436;-77.514;2024-03-23T05:07:02;11;11;
80692;PMS5003;70055;39.436;-77.514;2024-03-23T05:09:30;12;12;
80692;PMS5003;70055;39.436;-77.514;2024-03-23T05:11:58;14;14;
80692;PMS5003;70055;39.436;-77.514;2024-03-23T05:14:26;20;19;
80692;PMS5003;70055;39.436;-77.514;2024-03-23T05:16:55;17;16;
80692;PMS5003;70055;39.436;-77.514;2024-03-23T05:19:23;16;15;
80692;PMS5003;70055;39.436;-77.514;2024-03-23T05:21:52;15;15;
80692;PMS5003;70055;39.436;-77.514;2024-03-23T05:24:21;17;17;
80692;PMS5003;70055;39.436;-77.514;2024-03-23T05:26:48;20;17;
80692;PMS5003;70055;39.436;-77.514;2024-03-23T05:29:16;19;19;
80692;PMS5003;70055;39.436;-77.514;2024-03-23T05:31:44;15;15;
80692;PMS5003;70055;39.436;-77.514;2024-03-23T05:34:16;18;18;
80692;PMS5003;70055;39.436;-77.514;2024-03-23T05:36:43;17;17;
80692;PMS5003;70055;39.436;-77.514;2024-03-23T05:39:11;22;21;
80692;PMS5003;70055;39.436;-77.514;2024-03-23T05:41:39;20;19;
80692;PMS5003;70055;39.436;-77.514;2024-03-23T05:44:07;17;16;
80692;PMS5003;70055;39.436;-77.514;2024-03-23T05:46:36;20;19;
80692;PMS5003;70055;39.436;-77.514;2024-03-23T05:49:03;21;21;
80692;PMS5003;70055;39.436;-77.514;2024-03-23T05:51:32;23;22;
80692;PMS5003;70055;39.436;-77.514;2024-03-23T05:53:59;20;20;
80692;PMS5003;70055;39.436;-77.514;2024-03-23T05:56:27;17;16;
80692;PMS5003;70055;39.436;-77.514;2024-03-23T05:58:55;20;19;
80692;PMS5003;70055;39.436;-77.514;2024-03-23T06:01:23;23;20;
80692;PMS5003;70055;39.436;-77.514;2024-03-23T06:03:51;19;19;
80692;PMS5003;70055;39.436;-77.514;2024-03-23T06:06:20;21;20;
80692;PMS5003;70055;39.436;-77.514;2024-03-23T06:08:48;19;18;
80692;PMS5003;70055;39.436;-77.514;2024-03-23T06:11:16;19;19;
80692;PMS5003;70055;39.436;-77.514;2024-03-23T06:13:44;26;26;
80692;PMS5003;70055;39.436;-77.514;2024-03-23T06:16:12;22;22;
80692;PMS5003;70055;39.436;-77.514;2024-03-23T06:18:40;23;23;
80692;PMS5003;70055;39.436;-77.514;2024-03-23T06:21:13;21;21;
80692;PMS5003;70055;39.436;-77.514;2024-03-23T06:23:40;23;23;
80692;PMS5003;70055;39.436;-77.514;2024-03-23T06:26:09;20;19;
80692;PMS5003;70055;39.436;-77.514;2024-03-23T06:28:37;25;21;
80692;PMS5003;70055;39.436;-77.514;2024-03-23T06:31:07;19;19;
80692;PMS5003;70055;39.436;-77.514;2024-03-23T06:33:37;24;22;
80692;PMS5003;70055;39.436;-77.514;2024-03-23T06:36:05;22;22;
80692;PMS5003;70055;39.436;-77.514;2024-03-23T06:38:35;23;21;
80692;PMS5003;70055;39.436;-77.514;2024-03-23T06:41:04;21;21;
80692;PMS5003;70055;39.436;-77.514;2024-03-23T06:43:32;23;23;
80692;PMS5003;70055;39.436;-77.514;2024-03-23T06:46:01;18;18;
80692;PMS5003;70055;39.436;-77.514;2024-03-23T06:48:30;23;21;
80692;PMS5003;70055;39.436;-77.514;2024-03-23T06:50:58;21;19;
80692;PMS5003;70055;39.436;-77.514;2024-03-23T06:53:27;18;18;
80692;PMS5003;70055;39.436;-77.514;2024-03-23T06:55:55;18;18;
80692;PMS5003;70055;39.436;-77.514;2024-03-23T06:58:23;18;18;
80692;PMS5003;70055;39.436;-77.514;2024-03-23T07:00:52;16;14;
80692;PMS5003;70055;39.436;-77.514;2024-03-23T07:03:20;17;17;
80692;PMS5003;70055;39.436;-77.514;2024-03-23T07:05:48;18;18;
80692;PMS5003;70055;39.436;-77.514;2024-03-23T07:08:16;20;17;
80692;PMS5003;70055;39.436;-77.514;2024-03-23T07:10:44;17;17;
80692;PMS5003;70055;39.436;-77.514;2024-03-23T07:13:12;16;16;
80692;PMS5003;70055;39.436;-77.514;2024-03-23T07:15:40;22;22;
80692;PMS5003;70055;39.436;-77.514;2024-03-23T07:18:08;20;19;
80692;PMS5003;70055;39.436;-77.514;2024-03-23T07:20:37;22;20;
80692;PMS5003;70055;39.436;-77.514;2024-03-23T07:23:05;26;23;
80692;PMS5003;70055;39.436;-77.514;2024-03-23T07:25:32;20;20;
80692;PMS5003;70055;39.436;-77.514;2024-03-23T07:28:00;27;27;
80692;PMS5003;70055;39.436;-77.514;2024-03-23T07:30:28;29;26;
80692;PMS5003;70055;39.436;-77.514;2024-03-23T07:32:56;23;23;
80692;PMS5003;70055;39.436;-77.514;2024-03-23T07:35:25;22;22;
80692;PMS5003;70055;39.436;-77.514;2024-03-23T07:37:53;24;24;
80692;PMS5003;70055;39.436;-77.514;2024-03-23T07:40:21;23;20;
80692;PMS5003;70055;39.436;-77.514;2024-03-23T07:42:49;22;22;
80692;PMS5003;70055;39.436;-77.514;2024-03-23T07:45:17;26;24;
80692;PMS5003;70055;39.436;-77.514;2024-03-23T07:47:45;26;26;
80692;PMS5003;70055;39.436;-77.514;2024-03-23T07:50:13;24;22;
80692;PMS5003;70055;39.436;-77.514;2024-03-23T07:52:42;23;23;
80692;PMS5003;70055;39.436;-77.514;2024-03-23T07:55:10;24;23;
80692;PMS5003;70055;39.436;-77.514;2024-03-23T07:57:38;24;21;
80692;PMS5003;70055;39.436;-77.514;2024-03-23T08:00:07;19;19;
80692;PMS5003;70055;39.436;-77.514;2024-03-23T08:02:36;19;16;
80692;PMS5003;70055;39.436;-77.514;2024-03-23T08:05:05;18;18;
80692;PMS5003;70055;39.436;-77.514;2024-03-23T08:07:33;19;19;
80692;PMS5003;70055;39.436;-77.514;2024-03-23T08:10:01;18;18;
80692;PMS5003;70055;39.436;-77.514;2024-03-23T08:12:30;19;19;
80692;PMS5003;70055;39.436;-77.514;2024-03-23T08:14:58;19;18;
80692;PMS5003;70055;39.436;-77.514;2024-03-23T08:17:27;21;19;
80692;PMS5003;70055;39.436;-77.514;2024-03-23T08:19:55;23;23;
80692;PMS5003;70055;39.436;-77.514;2024-03-23T08:22:22;17;16;
80692;PMS5003;70055;39.436;-77.514;2024-03-23T08:24:50;23;22;
80692;PMS5003;70055;39.436;-77.514;2024-03-23T08:27:18;19;18;
80692;PMS5003;70055;39.436;-77.514;2024-03-23T08:29:47;19;19;
80692;PMS5003;70055;39.436;-77.514;2024-03-23T08:32:15;19;18;
80692;PMS5003;70055;39.436;-77.514;2024-03-23T08:34:43;18;18;
80692;PMS5003;70055;39.436;-77.514;2024-03-23T08:37:11;19;18;
80692;PMS5003;70055;39.436;-77.514;2024-03-23T08:39:39;20;19;
80692;PMS5003;70055;39.436;-77.514;2024-03-23T08:42:08;20;19;
80692;PMS5003;70055;39.436;-77.514;2024-03-23T08:44:36;20;18;
80692;PMS5003;70055;39.436;-77.514;2024-03-23T08:47:04;25;22;
80692;PMS5003;70055;39.436;-77.514;2024-03-23T08:49:33;19;18;
80692;PMS5003;70055;39.436;-77.514;2024-03-23T08:52:01;20;19;
80692;PMS5003;70055;39.436;-77.514;2024-03-23T08:54:28;16;16;
80692;PMS5003;70055;39.436;-77.514;2024-03-23T08:56:57;16;16;
80692;PMS5003;70055;39.436;-77.514;2024-03-23T08:59:25;12;12;
80692;PMS5003;70055;39.436;-77.514;2024-03-23T09:01:53;13;13;
80692;PMS5003;70055;39.436;-77.514;2024-03-23T09:04:21;13;13;
80692;PMS5003;70055;39.436;-77.514;2024-03-23T09:06:49;16;15;
80692;PMS5003;70055;39.436;-77.514;2024-03-23T09:09:18;13;13;
80692;PMS5003;70055;39.436;-77.514;2024-03-23T09:11:45;8;7;
80692;PMS5003;70055;39.436;-77.514;2024-03-23T09:14:14;8;8;
80692;PMS5003;70055;39.436;-77.514;2024-03-23T09:16:42;7;7;
80692;PMS5003;70055;39.436;-77.514;2024-03-23T09:19:10;6;6;
80692;PMS5003;70055;39.436;-77.514;2024-03-23T09:21:38;7;7;
80692;PMS5003;70055;39.436;-77.514;2024-03-23T09:24:10;5;5;
80692;PMS5003;70055;39.436;-77.514;2024-03-23T09:26:38;13;13;
80692;PMS5003;70055;39.436;-77.514;2024-03-23T09:29:06;15;15;
80692;PMS5003;70055;39.436;-77.514;2024-03-23T09:31:34;17;16;
80692;PMS5003;70055;39.436;-77.514;2024-03-23T09:34:02;10;10;
80692;PMS5003;70055;39.436;-77.514;2024-03-23T09:36:30;9;9;
80692;PMS5003;70055;39.436;-77.514;2024-03-23T09:38:58;10;10;
80692;PMS5003;70055;39.436;-77.514;2024-03-23T09:41:26;10;10;
80692;PMS5003;70055;39.436;-77.514;2024-03-23T09:43:55;7;7;
80692;PMS5003;70055;39.436;-77.514;2024-03-23T09:46:23;7;7;
80692;PMS5003;70055;39.436;-77.514;2024-03-23T09:48:51;10;8;
80692;PMS5003;70055;39.436;-77.514;2024-03-23T09:51:19;6;6;
80692;PMS5003;70055;39.436;-77.514;2024-03-23T09:53:46;13;13;
80692;PMS5003;70055;39.436;-77.514;2024-03-23T09:56:17;13;13;
80692;PMS5003;70055;39.436;-77.514;2024-03-23T09:58:44;12;11;
80692;PMS5003;70055;39.436;-77.514;2024-03-23T10:01:12;15;15;
80692;PMS5003;70055;39.436;-77.514;2024-03-23T10:03:42;14;12;
80692;PMS5003;70055;39.436;-77.514;2024-03-23T10:06:10;15;15;
80692;PMS5003;70055;39.436;-77.514;2024-03-23T10:08:39;12;12;
80692;PMS5003;70055;39.436;-77.514;2024-03-23T10:11:12;14;14;
80692;PMS5003;70055;39.436;-77.514;2024-03-23T10:13:42;13;12;
80692;PMS5003;70055;39.436;-77.514;2024-03-23T10:16:10;13;13;
80692;PMS5003;70055;39.436;-77.514;2024-03-23T10:18:38;11;11;
80692;PMS5003;70055;39.436;-77.514;2024-03-23T10:21:07;14;13;
80692;PMS5003;70055;39.436;-77.514;2024-03-23T10:23:37;13;13;
80692;PMS5003;70055;39.436;-77.514;2024-03-23T10:26:14;16;13;
80692;PMS5003;70055;39.436;-77.514;2024-03-23T10:28:56;11;10;
80692;PMS5003;70055;39.436;-77.514;2024-03-23T10:31:25;13;13;
80692;PMS5003;70055;39.436;-77.514;2024-03-23T10:33:53;13;11;
80692;PMS5003;70055;39.436;-77.514;2024-03-23T10:36:21;7;7;
80692;PMS5003;70055;39.436;-77.514;2024-03-23T10:38:51;8;8;
80692;PMS5003;70055;39.436;-77.514;2024-03-23T10:41:21;8;8;
80692;PMS5003;70055;39.436;-77.514;2024-03-23T10:43:49;10;9;
80692;PMS5003;70055;39.436;-77.514;2024-03-23T10:46:17;13;13;
80692;PMS5003;70055;39.436;-77.514;2024-03-23T10:48:45;13;11;
80692;PMS5003;70055;39.436;-77.514;2024-03-23T10:51:14;15;14;
80692;PMS5003;70055;39.436;-77.514;2024-03-23T10:53:42;14;13;
80692;PMS5003;70055;39.436;-77.514;2024-03-23T10:56:11;4;4;
80692;PMS5003;70055;39.436;-77.514;2024-03-23T10:58:41;9;8;
80692;PMS5003;70055;39.436;-77.514;2024-03-23T11:01:11;10;9;
80692;PMS5003;70055;39.436;-77.514;2024-03-23T11:03:44;13;12;
80692;PMS5003;70055;39.436;-77.514;2024-03-23T11:06:33;13;13;
80692;PMS5003;70055;39.436;-77.514;2024-03-23T11:09:02;12;12;
80692;PMS5003;70055;39.436;-77.514;2024-03-23T11:11:30;13;12;
80692;PMS5003;70055;39.436;-77.514;2024-03-23T11:13:59;13;11;
80692;PMS5003;70055;39.436;-77.514;2024-03-23T11:16:28;15;13;
80692;PMS5003;70055;39.436;-77.514;2024-03-23T11:19:33;13;13;
80692;PMS5003;70055;39.436;-77.514;2024-03-23T11:22:02;10;10;
80692;PMS5003;70055;39.436;-77.514;2024-03-23T11:24:31;12;11;
80692;PMS5003;70055;39.436;-77.514;2024-03-23T11:26:59;16;13;
80692;PMS5003;70055;39.436;-77.514;2024-03-23T11:29:27;12;11;
80692;PMS5003;70055;39.436;-77.514;2024-03-23T11:31:56;13;12;
80692;PMS5003;70055;39.436;-77.514;2024-03-23T11:34:24;12;12;
80692;PMS5003;70055;39.436;-77.514;2024-03-23T11:36:53;12;11;
80692;PMS5003;70055;39.436;-77.514;2024-03-23T11:39:31;12;12;
80692;PMS5003;70055;39.436;-77.514;2024-03-23T11:41:59;12;11;
80692;PMS5003;70055;39.436;-77.514;2024-03-23T11:44:28;11;9;
80692;PMS5003;70055;39.436;-77.514;2024-03-23T11:47:05;12;12;
80692;PMS5003;70055;39.436;-77.514;2024-03-23T11:49:35;7;7;
80692;PMS5003;70055;39.436;-77.514;2024-03-23T11:52:03;9;9;
80692;PMS5003;70055;39.436;-77.514;2024-03-23T11:54:31;7;6;
80692;PMS5003;70055;39.436;-77.514;2024-03-23T11:57:00;8;8;
80692;PMS5003;70055;39.436;-77.514;2024-03-23T11:59:30;9;7;
80692;PMS5003;70055;39.436;-77.514;2024-03-23T12:01:59;6;6;
80692;PMS5003;70055;39.436;-77.514;2024-03-23T12:04:27;4;4;
80692;PMS5003;70055;39.436;-77.514;2024-03-23T12:07:11;6;6;
80692;PMS5003;70055;39.436;-77.514;2024-03-23T12:09:40;6;4;
80692;PMS5003;70055;39.436;-77.514;2024-03-23T12:12:10;9;9;
80692;PMS5003;70055;39.436;-77.514;2024-03-23T12:14:40;7;7;
80692;PMS5003;70055;39.436;-77.514;2024-03-23T12:17:09;6;6;
80692;PMS5003;70055;39.436;-77.514;2024-03-23T12:19:38;4;4;
80692;PMS5003;70055;39.436;-77.514;2024-03-23T12:22:06;4;4;
80692;PMS5003;70055;39.436;-77.514;2024-03-23T12:24:35;6;3;
80692;PMS5003;70055;39.436;-77.514;2024-03-23T12:27:04;4;4;
80692;PMS5003;70055;39.436;-77.514;2024-03-23T12:29:32;7;7;
80692;PMS5003;70055;39.436;-77.514;2024-03-23T12:32:02;7;6;
80692;PMS5003;70055;39.436;-77.514;2024-03-23T12:34:30;6;6;
80692;PMS5003;70055;39.436;-77.514;2024-03-23T12:36:59;6;6;
80692;PMS5003;70055;39.436;-77.514;2024-03-23T12:39:27;3;3;
80692;PMS5003;70055;39.436;-77.514;2024-03-23T12:41:56;6;6;
80692;PMS5003;70055;39.436;-77.514;2024-03-23T12:44:23;4;4;
80692;PMS5003;70055;39.436;-77.514;2024-03-23T12:46:52;10;8;
80692;PMS5003;70055;39.436;-77.514;2024-03-23T12:49:20;7;7;
80692;PMS5003;70055;39.436;-77.514;2024-03-23T12:51:52;4;4;
80692;PMS5003;70055;39.436;-77.514;2024-03-23T12:54:22;2;2;
80692;PMS5003;70055;39.436;-77.514;2024-03-23T12:56:50;2;1;
80692;PMS5003;70055;39.436;-77.514;2024-03-23T12:59:19;2;1;
80692;PMS5003;70055;39.436;-77.514;2024-03-23T13:01:47;1;1;
80692;PMS5003;70055;39.436;-77.514;2024-03-23T13:04:15;3;3;
80692;PMS5003;70055;39.436;-77.514;2024-03-23T13:06:43;6;6;
80692;PMS5003;70055;39.436;-77.514;2024-03-23T13:09:11;4;4;
80692;PMS5003;70055;39.436;-77.514;2024-03-23T13:11:40;5;5;
80692;PMS5003;70055;39.436;-77.514;2024-03-23T13:14:07;6;6;
80692;PMS5003;70055;39.436;-77.514;2024-03-23T13:16:36;4;4;
80692;PMS5003;70055;39.436;-77.514;2024-03-23T13:19:04;5;5;
80692;PMS5003;70055;39.436;-77.514;2024-03-23T13:21:33;4;4;
80692;PMS5003;70055;39.436;-77.514;2024-03-23T13:24:01;5;5;
80692;PMS5003;70055;39.436;-77.514;2024-03-23T13:26:30;3;3;
80692;PMS5003;70055;39.436;-77.514;2024-03-23T13:28:58;3;3;
80692;PMS5003;70055;39.436;-77.514;2024-03-23T13:31:26;4;4;
80692;PMS5003;70055;39.436;-77.514;2024-03-23T13:33:55;4;3;
80692;PMS5003;70055;39.436;-77.514;2024-03-23T13:36:23;8;8;
80692;PMS5003;70055;39.436;-77.514;2024-03-23T13:38:52;7;7;
80692;PMS5003;70055;39.436;-77.514;2024-03-23T13:41:21;7;5;
80692;PMS5003;70055;39.436;-77.514;2024-03-23T13:43:49;5;5;
80692;PMS5003;70055;39.436;-77.514;2024-03-23T13:46:18;4;4;
80692;PMS5003;70055;39.436;-77.514;2024-03-23T13:48:46;9;8;
80692;PMS5003;70055;39.436;-77.514;2024-03-23T13:51:13;4;4;
80692;PMS5003;70055;39.436;-77.514;2024-03-23T13:53:42;4;4;
80692;PMS5003;70055;39.436;-77.514;2024-03-23T13:56:10;4;4;
80692;PMS5003;70055;39.436;-77.514;2024-03-23T13:58:39;4;4;
80692;PMS5003;70055;39.436;-77.514;2024-03-23T14:01:07;5;4;
80692;PMS5003;70055;39.436;-77.514;2024-03-23T14:03:35;4;4;
80692;PMS5003;70055;39.436;-77.514;2024-03-23T14:06:04;4;4;
80692;PMS5003;70055;39.436;-77.514;2024-03-23T14:08:33;5;5;
80692;PMS5003;70055;39.436;-77.514;2024-03-23T14:11:02;6;6;
80692;PMS5003;70055;39.436;-77.514;2024-03-23T14:13:30;8;8;
80692;PMS5003;70055;39.436;-77.514;2024-03-23T14:15:59;5;5;
80692;PMS5003;70055;39.436;-77.514;2024-03-23T14:18:27;5;5;
80692;PMS5003;70055;39.436;-77.514;2024-03-23T14:20:56;8;8;
80692;PMS5003;70055;39.436;-77.514;2024-03-23T14:23:28;5;5;
80692;PMS5003;70055;39.436;-77.514;2024-03-23T14:25:57;4;4;
80692;PMS5003;70055;39.436;-77.514;2024-03-23T14:28:25;10;10;
80692;PMS5003;70055;39.436;-77.514;2024-03-23T14:30:54;17;17;
80692;PMS5003;70055;39.436;-77.514;2024-03-23T14:33:24;5;5;
80692;PMS5003;70055;39.436;-77.514;2024-03-23T14:35:52;5;5;
80692;PMS5003;70055;39.436;-77.514;2024-03-23T14:38:20;3;3;
80692;PMS5003;70055;39.436;-77.514;2024-03-23T14:40:48;5;5;
80692;PMS5003;70055;39.436;-77.514;2024-03-23T14:43:16;3;3;
80692;PMS5003;70055;39.436;-77.514;2024-03-23T14:46:04;2;2;
80692;PMS5003;70055;39.436;-77.514;2024-03-23T14:48:34;4;4;
80692;PMS5003;70055;39.436;-77.514;2024-03-23T14:51:03;3;3;
80692;PMS5003;70055;39.436;-77.514;2024-03-23T14:53:32;2;2;
80692;PMS5003;70055;39.436;-77.514;2024-03-23T14:56:00;2;2;
80692;PMS5003;70055;39.436;-77.514;2024-03-23T14:58:29;4;3;
80692;PMS5003;70055;39.436;-77.514;2024-03-23T15:01:01;2;2;
80692;PMS5003;70055;39.436;-77.514;2024-03-23T15:03:29;1;1;
80692;PMS5003;70055;39.436;-77.514;2024-03-23T15:05:58;2;2;
80692;PMS5003;70055;39.436;-77.514;2024-03-23T15:08:27;2;2;
80692;PMS5003;70055;39.436;-77.514;2024-03-23T15:10:58;3;3;
80692;PMS5003;70055;39.436;-77.514;2024-03-23T15:13:27;3;3;
80692;PMS5003;70055;39.436;-77.514;2024-03-23T15:15:55;3;3;
80692;PMS5003;70055;39.436;-77.514;2024-03-23T15:18:23;3;3;
80692;PMS5003;70055;39.436;-77.514;2024-03-23T15:20:53;3;3;
80692;PMS5003;70055;39.436;-77.514;2024-03-23T15:23:22;2;2;
80692;PMS5003;70055;39.436;-77.514;2024-03-23T15:25:56;2;2;
80692;PMS5003;70055;39.436;-77.514;2024-03-23T15:28:25;1;1;
80692;PMS5003;70055;39.436;-77.514;2024-03-23T15:30:57;2;2;
80692;PMS5003;70055;39.436;-77.514;2024-03-23T15:33:26;2;2;
80692;PMS5003;70055;39.436;-77.514;2024-03-23T15:35:54;3;3;
80692;PMS5003;70055;39.436;-77.514;2024-03-23T15:38:25;3;3;
80692;PMS5003;70055;39.436;-77.514;2024-03-23T15:40:54;5;5;
80692;PMS5003;70055;39.436;-77.514;2024-03-23T15:43:23;4;4;
80692;PMS5003;70055;39.436;-77.514;2024-03-23T15:45:55;5;5;
80692;PMS5003;70055;39.436;-77.514;2024-03-23T15:48:23;4;4;
80692;PMS5003;70055;39.436;-77.514;2024-03-23T15:50:52;5;5;
80692;PMS5003;70055;39.436;-77.514;2024-03-23T15:53:21;5;4;
80692;PMS5003;70055;39.436;-77.514;2024-03-23T15:55:53;4;4;
80692;PMS5003;70055;39.436;-77.514;2024-03-23T15:58:20;6;5;
80692;PMS5003;70055;39.436;-77.514;2024-03-23T16:00:54;6;6;
80692;PMS5003;70055;39.436;-77.514;2024-03-23T16:03:22;8;8;
80692;PMS5003;70055;39.436;-77.514;2024-03-23T16:05:51;8;8;
80692;PMS5003;70055;39.436;-77.514;2024-03-23T16:08:19;8;8;
80692;PMS5003;70055;39.436;-77.514;2024-03-23T16:10:47;8;8;
80692;PMS5003;70055;39.436;-77.514;2024-03-23T16:13:16;7;7;
80692;PMS5003;70055;39.436;-77.514;2024-03-23T16:15:45;9;9;
80692;PMS5003;70055;39.436;-77.514;2024-03-23T16:18:21;8;8;
80692;PMS5003;70055;39.436;-77.514;2024-03-23T16:20:53;10;10;
80692;PMS5003;70055;39.436;-77.514;2024-03-23T16:23:22;12;12;
80692;PMS5003;70055;39.436;-77.514;2024-03-23T16:25:56;14;14;
80692;PMS5003;70055;39.436;-77.514;2024-03-23T16:28:25;15;15;
80692;PMS5003;70055;39.436;-77.514;2024-03-23T16:30:55;16;16;
80692;PMS5003;70055;39.436;-77.514;2024-03-23T16:33:23;18;18;
80692;PMS5003;70055;39.436;-77.514;2024-03-23T16:35:56;12;12;
80692;PMS5003;70055;39.436;-77.514;2024-03-23T16:38:26;9;9;
80692;PMS5003;70055;39.436;-77.514;2024-03-23T16:40:56;11;11;
80692;PMS5003;70055;39.436;-77.514;2024-03-23T16:43:25;9;9;
80692;PMS5003;70055;39.436;-77.514;2024-03-23T16:45:54;9;9;
80692;PMS5003;70055;39.436;-77.514;2024-03-23T16:48:25;7;7;
80692;PMS5003;70055;39.436;-77.514;2024-03-23T16:50:56;6;6;
80692;PMS5003;70055;39.436;-77.514;2024-03-23T16:53:25;4;4;
80692;PMS5003;70055;39.436;-77.514;2024-03-23T16:55:54;4;4;
80692;PMS5003;70055;39.436;-77.514;2024-03-23T16:58:23;4;4;
80692;PMS5003;70055;39.436;-77.514;2024-03-23T17:00:52;4;4;
80692;PMS5003;70055;39.436;-77.514;2024-03-23T17:03:20;4;3;